Time;durP1;ratioP1;P1;durP2;ratioP2;P2;SDS_P1;SDS_P2;PMS_P1;PMS_P2;Temp;Humidity;BMP_temperature;BMP_pressure;BME280_temperature;BME280_humidity;BME280_pressure;Samples;Min_cycle;Max_cycle;Signal;HPM_P1;HPM_P2
2022/09/08 00:00:26;;;;;;;2.60;1.42;;;;;;;14.53;100.00;92349.97;5008573;28;20052;-77
2022/09/08 00:02:53;;;;;;;2.13;1.33;;;;;;;14.57;100.00;92364.06;5032212;28;20509;-76
2022/09/08 00:05:23;;;;;;;3.20;1.50;;;;;;;14.58;100.00;92371.66;5041718;28;20111;-76
2022/09/08 00:07:49;;;;;;;3.83;1.70;;;;;;;14.62;100.00;92377.06;5054540;28;20032;-76
2022/09/08 00:10:15;;;;;;;3.35;1.58;;;;;;;14.62;100.00;92363.91;5049942;28;20465;-76
2022/09/08 00:12:42;;;;;;;6.20;2.22;;;;;;;14.71;100.00;92348.84;5053293;28;20137;-76
2022/09/08 00:15:11;;;;;;;5.93;1.85;;;;;;;14.74;100.00;92379.81;5051699;28;20418;-76
2022/09/08 00:17:38;;;;;;;6.32;2.08;;;;;;;14.67;100.00;92400.63;5032445;28;20036;-77
2022/09/08 00:20:06;;;;;;;4.07;2.00;;;;;;;14.63;100.00;92439.19;5015673;28;20029;-76
2022/09/08 00:22:31;;;;;;;3.70;1.80;;;;;;;14.68;100.00;92427.72;5033741;28;20555;-76
2022/09/08 00:24:57;;;;;;;19.85;1.85;;;;;;;14.59;100.00;92377.72;5033650;28;20080;-77
2022/09/08 00:27:22;;;;;;;6.55;1.70;;;;;;;14.42;100.00;92370.56;5040285;28;20474;-77
2022/09/08 00:29:48;;;;;;;3.45;1.90;;;;;;;14.37;100.00;92365.47;5036031;28;20048;-77
2022/09/08 00:32:14;;;;;;;3.58;1.77;;;;;;;14.33;100.00;92381.09;5063022;28;20059;-76
2022/09/08 00:34:39;;;;;;;8.27;1.70;;;;;;;14.25;100.00;92389.81;5073012;28;20093;-76
2022/09/08 00:37:05;;;;;;;6.40;1.73;;;;;;;14.18;100.00;92376.31;5054059;28;20033;-76
2022/09/08 00:39:30;;;;;;;3.05;1.63;;;;;;;14.15;100.00;92354.03;5061075;28;20548;-76
2022/09/08 00:41:57;;;;;;;3.90;2.17;;;;;;;14.13;100.00;92334.34;5063253;28;20020;-76
2022/09/08 00:44:48;;;;;;;4.72;1.67;;;;;;;14.15;100.00;92343.50;5060866;28;20482;-76
2022/09/08 00:47:26;;;;;;;3.42;1.83;;;;;;;14.14;100.00;92351.72;5051147;28;20056;-76
2022/09/08 00:50:16;;;;;;;3.92;1.90;;;;;;;14.05;100.00;92356.19;5066189;28;20112;-76
2022/09/08 00:52:47;;;;;;;3.67;1.60;;;;;;;13.99;100.00;92350.31;5034896;28;20091;-76
2022/09/08 00:55:14;;;;;;;3.47;1.80;;;;;;;13.92;100.00;92356.03;5052207;28;20102;-76
2022/09/08 00:57:40;;;;;;;3.53;1.67;;;;;;;13.90;100.00;92370.59;5035017;28;20040;-76
2022/09/08 01:00:09;;;;;;;4.05;1.77;;;;;;;13.84;100.00;92341.03;5052733;28;20033;-76
2022/09/08 01:02:35;;;;;;;3.95;1.65;;;;;;;13.86;100.00;92333.59;5035306;28;20337;-76
2022/09/08 01:05:05;;;;;;;3.42;1.85;;;;;;;13.92;100.00;92356.03;5035138;28;20033;-77
2022/09/08 01:14:00;;;;;;;3.42;1.50;;;;;;;13.92;100.00;92334.22;5051376;28;20052;-76
2022/09/08 01:16:26;;;;;;;5.15;1.80;;;;;;;13.85;100.00;92334.69;5034230;28;20037;-76
2022/09/08 01:18:56;;;;;;;3.15;1.65;;;;;;;13.78;100.00;92329.13;5052893;28;20478;-76
2022/09/08 01:21:40;;;;;;;3.03;1.70;;;;;;;13.74;100.00;92346.59;5052538;28;20067;-76
2022/09/08 01:24:47;;;;;;;2.55;1.52;;;;;;;13.77;100.00;92345.97;5034642;28;20402;-76
2022/09/08 01:27:22;;;;;;;3.45;1.45;;;;;;;13.77;100.00;92345.19;5031430;28;20080;-77
2022/09/08 01:29:51;;;;;;;3.70;1.60;;;;;;;13.78;100.00;92352.00;5041926;28;20060;-76
2022/09/08 01:32:19;;;;;;;4.35;1.50;;;;;;;13.80;100.00;92369.03;5000205;28;20022;-76
2022/09/08 01:34:45;;;;;;;3.67;1.67;;;;;;;13.83;100.00;92378.19;5017834;28;20048;-76
2022/09/08 01:37:11;;;;;;;13.05;2.17;;;;;;;13.81;100.00;92352.16;5052227;28;20044;-76
2022/09/08 01:39:37;;;;;;;6.72;1.98;;;;;;;13.83;100.00;92342.13;5045476;28;20287;-76
2022/09/08 01:42:04;;;;;;;9.35;2.13;;;;;;;13.84;100.00;92322.59;5032259;28;20395;-76
2022/09/08 01:44:30;;;;;;;5.28;1.55;;;;;;;13.83;100.00;92307.91;5032193;28;20038;-77
2022/09/08 01:46:55;;;;;;;3.22;1.55;;;;;;;13.78;100.00;92279.13;5008661;28;20028;-77
2022/09/08 01:49:21;;;;;;;3.17;1.20;;;;;;;13.75;100.00;92241.03;5006955;28;20029;-77
2022/09/08 01:51:47;;;;;;;2.55;1.10;;;;;;;13.73;100.00;92250.34;4992978;28;20040;-77
2022/09/08 01:54:13;;;;;;;2.08;1.10;;;;;;;13.73;100.00;92240.59;4994314;28;20399;-77
2022/09/08 01:56:39;;;;;;;2.35;1.25;;;;;;;13.77;100.00;92246.00;5009665;28;20034;-77
2022/09/08 01:59:04;;;;;;;1.95;1.13;;;;;;;13.94;100.00;92238.09;5022179;28;20075;-76
2022/09/08 02:01:30;;;;;;;2.30;1.05;;;;;;;13.86;100.00;92217.81;5012098;28;20033;-76
2022/09/08 02:03:55;;;;;;;1.85;1.20;;;;;;;13.87;100.00;92206.22;4991676;28;20042;-76
2022/09/08 02:06:21;;;;;;;1.08;0.90;;;;;;;13.89;100.00;92225.13;5023642;28;20037;-76
2022/09/08 02:08:51;;;;;;;2.00;1.08;;;;;;;13.93;100.00;92254.19;5014945;28;20026;-77
2022/09/08 02:11:17;;;;;;;2.20;1.20;;;;;;;13.91;100.00;92286.06;5035395;28;20534;-76
2022/09/08 02:13:43;;;;;;;3.85;1.60;;;;;;;13.87;100.00;92300.94;5031460;28;20037;-76
2022/09/08 02:16:11;;;;;;;4.75;1.40;;;;;;;13.82;100.00;92266.88;5011425;28;20022;-77
2022/09/08 02:18:38;;;;;;;2.58;1.60;;;;;;;13.80;100.00;92237.47;5021848;28;20085;-77
2022/09/08 02:21:07;;;;;;;2.47;1.17;;;;;;;13.77;100.00;92256.53;5028652;28;20045;-77
2022/09/08 02:23:34;;;;;;;4.25;1.40;;;;;;;13.75;100.00;92237.66;5030344;28;20029;-75
2022/09/08 02:26:00;;;;;;;112.75;3.50;;;;;;;13.71;100.00;92234.09;5002834;28;20042;-76
2022/09/08 02:28:26;;;;;;;29.65;1.67;;;;;;;13.90;100.00;92234.53;5008492;28;20509;-76
2022/09/08 02:30:55;;;;;;;3.28;1.45;;;;;;;13.75;100.00;92212.09;5013049;28;20038;-76
2022/09/08 02:33:21;;;;;;;2.13;1.20;;;;;;;13.70;100.00;92191.22;5028370;28;20037;-76
2022/09/08 02:35:47;;;;;;;2.63;1.35;;;;;;;13.68;100.00;92200.53;5025706;28;20044;-76
2022/09/08 02:38:12;;;;;;;1.13;0.95;;;;;;;13.82;100.00;92226.66;5027365;28;20045;-75
2022/09/08 02:40:38;;;;;;;2.95;1.20;;;;;;;14.08;100.00;92271.34;5013258;28;20084;-77
2022/09/08 02:43:04;;;;;;;4.88;1.60;;;;;;;14.01;100.00;92294.75;5034697;28;20125;-77
2022/09/08 02:45:29;;;;;;;91.60;3.13;;;;;;;13.74;100.00;92299.25;5056487;28;20509;-77
2022/09/08 02:47:55;;;;;;;2.95;1.52;;;;;;;13.62;100.00;92263.06;5054962;28;20043;-77
2022/09/08 02:50:21;;;;;;;3.25;1.40;;;;;;;13.57;100.00;92218.47;5020481;28;20059;-78
2022/09/08 02:52:46;;;;;;;2.55;1.23;;;;;;;13.58;100.00;92195.56;5054630;28;20095;-77
2022/09/08 02:55:12;;;;;;;5.30;1.40;;;;;;;13.66;100.00;92190.31;5016801;28;20121;-75
2022/09/08 02:57:38;;;;;;;4.82;1.10;;;;;;;13.66;100.00;92194.81;5033114;28;20095;-75
2022/09/08 03:00:04;;;;;;;4.75;1.10;;;;;;;13.59;100.00;92231.31;5016573;28;20136;-76
2022/09/08 03:02:29;;;;;;;1.95;1.05;;;;;;;13.68;100.00;92298.63;5016685;28;20030;-75
2022/09/08 03:04:56;;;;;;;282.75;13.13;;;;;;;13.66;100.00;92326.31;5034505;28;20045;-75
2022/09/08 03:07:22;;;;;;;805.05;26.95;;;;;;;13.38;100.00;92321.34;5017830;28;20049;-77
2022/09/08 03:09:49;;;;;;;426.98;14.63;;;;;;;13.31;100.00;92326.28;5019834;28;20087;-77
2022/09/08 03:12:14;;;;;;;125.15;8.07;;;;;;;13.21;100.00;92331.78;5034586;28;20450;-76
2022/09/08 03:14:40;;;;;;;288.08;10.23;;;;;;;13.15;100.00;92296.19;5006807;28;20087;-76
2022/09/08 03:17:05;;;;;;;8.13;3.35;;;;;;;13.15;100.00;92281.22;5016559;28;20049;-77
2022/09/08 03:19:31;;;;;;;3.92;2.22;;;;;;;13.15;100.00;92297.00;5033600;28;20522;-77
2022/09/08 03:21:57;;;;;;;3.58;1.85;;;;;;;13.21;100.00;92289.72;5029645;28;20032;-77
2022/09/08 03:24:22;;;;;;;3.13;1.60;;;;;;;13.25;100.00;92291.44;5047257;28;20034;-77
2022/09/08 03:26:48;;;;;;;4.18;2.22;;;;;;;13.27;100.00;92304.28;5014918;28;20044;-76
2022/09/08 03:29:13;;;;;;;4.20;2.10;;;;;;;13.27;100.00;92307.66;5037788;28;20029;-77
2022/09/08 03:31:39;;;;;;;3.05;1.70;;;;;;;13.28;100.00;92282.97;5038318;28;20036;-77
2022/09/08 03:34:04;;;;;;;3.33;1.50;;;;;;;13.32;100.00;92281.25;5025489;28;20392;-77
2022/09/08 03:36:30;;;;;;;3.72;2.05;;;;;;;13.38;100.00;92273.25;5045902;28;20037;-77
2022/09/08 03:38:55;;;;;;;2.38;1.25;;;;;;;13.45;100.00;92278.81;5035025;28;20046;-77
2022/09/08 03:41:21;;;;;;;256.25;8.45;;;;;;;13.58;100.00;92277.09;5034876;28;20140;-77
2022/09/08 03:43:49;;;;;;;685.63;16.20;;;;;;;13.42;100.00;92282.84;5033756;28;20029;-77
2022/09/08 03:46:15;;;;;;;202.23;5.57;;;;;;;13.33;100.00;92261.03;5022282;28;20041;-77
2022/09/08 03:48:41;;;;;;;40.97;1.92;;;;;;;13.33;100.00;92255.75;5034776;28;20394;-76
2022/09/08 03:51:22;;;;;;;168.98;4.03;;;;;;;13.23;100.00;92246.28;5027470;28;20028;-76
2022/09/08 03:53:47;;;;;;;83.13;2.58;;;;;;;13.26;100.00;92237.00;5031872;28;20049;-77
2022/09/08 03:56:13;;;;;;;15.57;1.75;;;;;;;13.22;100.00;92243.97;5038873;28;20389;-77
2022/09/08 03:58:39;;;;;;;2.25;1.30;;;;;;;13.18;100.00;92240.41;5009148;28;20041;-77
2022/09/08 04:01:10;;;;;;;2.33;1.35;;;;;;;13.18;100.00;92237.78;5016635;28;20068;-77
2022/09/08 04:03:37;;;;;;;4.13;1.52;;;;;;;13.17;100.00;92237.00;5039892;28;20486;-77
2022/09/08 04:06:03;;;;;;;8.73;1.98;;;;;;;13.20;100.00;92236.38;5032451;28;20490;-77
2022/09/08 04:08:30;;;;;;;4.82;2.13;;;;;;;13.25;100.00;92246.75;5022407;28;20099;-77
2022/09/08 04:10:57;;;;;;;3.60;2.03;;;;;;;13.20;100.00;92239.00;5037573;28;20041;-77
2022/09/08 04:13:23;;;;;;;3.08;1.80;;;;;;;13.20;100.00;92235.63;5048744;28;20037;-77
2022/09/08 04:15:49;;;;;;;2.92;1.60;;;;;;;13.25;100.00;92235.47;5059924;28;20041;-77
2022/09/08 04:18:14;;;;;;;2.38;1.58;;;;;;;13.24;100.00;92231.28;5054646;28;20102;-77
2022/09/08 04:20:40;;;;;;;2.88;1.60;;;;;;;13.24;100.00;92233.91;5037074;28;20030;-80
2022/09/08 04:23:06;;;;;;;3.17;1.60;;;;;;;13.27;100.00;92235.94;5017139;28;20034;-78
2022/09/08 04:25:33;;;;;;;3.20;1.60;;;;;;;13.30;100.00;92241.34;5036210;28;20064;-78
2022/09/08 04:27:59;;;;;;;3.88;1.60;;;;;;;13.35;100.00;92237.03;5039294;28;20028;-80
2022/09/08 04:30:25;;;;;;;4.18;1.40;;;;;;;13.40;100.00;92224.53;5023860;28;20033;-78
2022/09/08 04:32:50;;;;;;;2.50;1.42;;;;;;;13.42;100.00;92226.81;5046553;28;20534;-77
2022/09/08 04:35:16;;;;;;;2.22;1.40;;;;;;;13.43;100.00;92226.53;5026780;28;20032;-78
2022/09/08 04:37:42;;;;;;;2.10;1.35;;;;;;;13.45;100.00;92227.00;5042269;28;20041;-78
2022/09/08 04:40:08;;;;;;;2.58;1.45;;;;;;;13.47;100.00;92230.09;5043210;28;20084;-79
2022/09/08 04:42:35;;;;;;;2.30;1.42;;;;;;;13.46;100.00;92225.91;5038458;28;20029;-78
2022/09/08 04:45:02;;;;;;;2.47;1.35;;;;;;;13.56;100.00;92227.47;5050268;28;20440;-78
2022/09/08 04:47:28;;;;;;;2.45;1.30;;;;;;;13.65;100.00;92225.59;5039438;28;20105;-78
2022/09/08 04:49:53;;;;;;;2.83;1.42;;;;;;;13.61;100.00;92219.41;5039436;28;20108;-79
2022/09/08 04:52:25;;;;;;;3.50;1.65;;;;;;;13.59;100.00;92205.78;5037501;28;20134;-79
2022/09/08 04:54:51;;;;;;;2.67;1.60;;;;;;;13.62;100.00;92207.81;5046377;28;20131;-79
2022/09/08 04:57:17;;;;;;;5.90;1.90;;;;;;;13.65;100.00;92209.06;5023939;28;20051;-78
2022/09/08 04:59:42;;;;;;;4.18;1.52;;;;;;;13.68;100.00;92218.94;5054791;28;20037;-78
2022/09/08 05:02:08;;;;;;;3.92;1.70;;;;;;;13.69;100.00;92237.06;5037566;28;20552;-79
2022/09/08 05:04:34;;;;;;;3.13;1.60;;;;;;;13.69;100.00;92225.72;5041495;28;20033;-78
2022/09/08 05:06:59;;;;;;;2.35;1.40;;;;;;;13.68;100.00;92216.31;5040274;28;20094;-79
2022/09/08 05:09:25;;;;;;;2.58;1.60;;;;;;;13.68;100.00;92213.69;5037201;28;20033;-79
2022/09/08 05:11:51;;;;;;;3.53;1.50;;;;;;;13.74;100.00;92207.94;5054518;28;20048;-78
2022/09/08 05:14:16;;;;;;;3.58;1.60;;;;;;;13.73;100.00;92211.69;5044914;28;20063;-78
2022/09/08 05:16:42;;;;;;;4.93;1.60;;;;;;;13.77;100.00;92216.31;5026253;28;20044;-77
2022/09/08 05:19:11;;;;;;;4.38;1.55;;;;;;;13.77;100.00;92201.28;5019760;28;20037;-78
2022/09/08 05:21:36;;;;;;;4.03;1.73;;;;;;;13.80;100.00;92197.25;5039051;28;20187;-77
2022/09/08 05:24:03;;;;;;;4.72;1.95;;;;;;;13.81;100.00;92207.47;5020795;28;20057;-79
2022/09/08 05:26:29;;;;;;;4.28;2.00;;;;;;;13.82;100.00;92201.13;5032702;28;20029;-79
2022/09/08 05:28:55;;;;;;;5.03;2.03;;;;;;;13.84;100.00;92204.22;5047083;28;20036;-78
2022/09/08 05:31:24;;;;;;;3.72;1.70;;;;;;;13.87;100.00;92210.69;5049636;28;20411;-79
2022/09/08 05:33:51;;;;;;;5.47;2.10;;;;;;;13.86;100.00;92215.19;5038123;28;20449;-79
2022/09/08 05:36:19;;;;;;;4.57;2.10;;;;;;;13.90;100.00;92202.19;5057251;28;20045;-78
2022/09/08 05:38:46;;;;;;;8.57;2.30;;;;;;;13.92;100.00;92197.41;5021852;28;20456;-79
2022/09/08 05:41:13;;;;;;;6.07;2.30;;;;;;;13.98;100.00;92205.88;5038059;28;20076;-79
2022/09/08 05:43:39;;;;;;;5.82;2.17;;;;;;;14.00;100.00;92216.88;5038384;28;20037;-79
2022/09/08 05:46:05;;;;;;;5.00;2.00;;;;;;;14.03;100.00;92224.16;5017969;28;20030;-77
2022/09/08 05:48:31;;;;;;;4.53;2.03;;;;;;;14.03;100.00;92218.91;5042415;28;20103;-76
2022/09/08 05:50:57;;;;;;;3.42;1.80;;;;;;;14.03;100.00;92224.16;5045695;28;20505;-77
2022/09/08 05:53:23;;;;;;;4.60;2.00;;;;;;;14.05;100.00;92221.97;5047741;28;20061;-76
2022/09/08 05:56:01;;;;;;;5.65;2.50;;;;;;;14.12;100.00;92222.28;5050404;28;20079;-77
2022/09/08 05:58:28;;;;;;;6.03;2.50;;;;;;;14.18;100.00;92220.25;5043021;28;20064;-77
2022/09/08 06:00:55;;;;;;;6.03;2.65;;;;;;;14.23;100.00;92218.22;5032602;28;20075;-77
2022/09/08 06:03:20;;;;;;;6.70;2.60;;;;;;;14.28;100.00;92223.31;5050577;28;20064;-76
2022/09/08 06:05:46;;;;;;;4.05;2.33;;;;;;;14.30;100.00;92223.78;5013636;28;20466;-77
2022/09/08 06:08:12;;;;;;;3.78;2.30;;;;;;;14.33;100.00;92225.75;5043946;28;20034;-77
2022/09/08 06:10:37;;;;;;;3.42;2.00;;;;;;;14.36;100.00;92222.53;5023344;28;20117;-77
2022/09/08 06:13:03;;;;;;;4.13;2.25;;;;;;;14.39;100.00;92236.91;5044973;28;20052;-76
2022/09/08 06:15:29;;;;;;;5.63;2.30;;;;;;;14.41;100.00;92240.00;5050003;28;20465;-77
2022/09/08 06:17:56;;;;;;;3.47;2.20;;;;;;;14.44;100.00;92246.50;5040627;28;20025;-76
2022/09/08 06:20:22;;;;;;;4.40;2.00;;;;;;;14.50;100.00;92235.47;5028240;28;20041;-77
2022/09/08 06:22:48;;;;;;;5.32;2.20;;;;;;;14.55;100.00;92227.41;5035544;28;20029;-79
2022/09/08 06:25:14;;;;;;;3.85;1.95;;;;;;;14.62;100.00;92234.06;5020098;28;20475;-76
2022/09/08 06:27:49;;;;;;;6.03;2.15;;;;;;;14.66;100.00;92227.06;5037269;28;20048;-77
2022/09/08 06:30:18;;;;;;;3.67;2.00;;;;;;;14.68;100.00;92233.56;5054702;28;20029;-77
2022/09/08 06:32:55;;;;;;;4.82;2.00;;;;;;;14.67;100.00;92239.91;5057183;28;20032;-77
2022/09/08 06:35:34;;;;;;;6.65;2.20;;;;;;;14.57;100.00;92248.19;5056745;28;20040;-77
2022/09/08 06:38:10;;;;;;;4.20;2.45;;;;;;;14.55;100.00;92239.81;5056912;28;20037;-77
2022/09/08 06:40:39;;;;;;;5.20;2.33;;;;;;;14.52;100.00;92238.56;5058534;28;20425;-77
2022/09/08 06:43:14;;;;;;;4.00;2.20;;;;;;;14.51;100.00;92244.13;5077847;28;20436;-76
2022/09/08 06:45:46;;;;;;;4.28;2.30;;;;;;;14.52;100.00;92245.66;5066041;28;20033;-77
2022/09/08 06:48:15;;;;;;;;;;;;;;;14.52;100.00;92246.47;5054432;28;20037;-76
2022/09/08 06:51:08;;;;;;;3.53;2.30;;;;;;;14.55;100.00;92242.47;5056614;28;19917;-76
2022/09/08 06:54:07;;;;;;;5.60;2.40;;;;;;;14.58;100.00;92241.81;5035383;28;20112;-77
2022/09/08 06:56:48;;;;;;;4.75;2.38;;;;;;;14.58;100.00;92239.19;5036438;28;20040;-77
2022/09/08 06:59:20;;;;;;;16.33;3.20;;;;;;;14.68;100.00;92240.69;5036439;28;20076;-77
2022/09/08 07:02:14;;;;;;;481.88;11.07;;;;;;;14.75;100.00;92238.34;5036325;28;20124;-77
2022/09/08 07:04:58;;;;;;;128.90;4.70;;;;;;;14.73;100.00;92240.53;5052724;28;20031;-77
2022/09/08 07:07:37;;;;;;;29.00;3.22;;;;;;;14.68;100.00;92244.09;5041578;28;20124;-76
2022/09/08 07:10:21;;;;;;;177.55;6.07;;;;;;;14.78;100.00;92237.69;5051246;28;20040;-77
2022/09/08 07:13:02;;;;;;;9.98;3.22;;;;;;;14.86;100.00;92238.75;5047130;28;20037;-77
2022/09/08 07:15:51;;;;;;;5.75;3.20;;;;;;;14.91;100.00;92233.31;5051893;28;20040;-77
2022/09/08 07:18:27;;;;;;;5.25;3.30;;;;;;;15.10;100.00;92238.91;5060690;28;20041;-77
2022/09/08 07:21:21;;;;;;;4.10;2.40;;;;;;;15.27;100.00;92232.78;5056114;28;20609;-77
2022/09/08 07:23:49;;;;;;;3.92;2.40;;;;;;;15.62;100.00;92222.72;5045405;28;20032;-77
2022/09/08 07:26:23;;;;;;;3.63;2.25;;;;;;;15.99;100.00;92216.84;5071944;28;20063;-76
2022/09/08 07:28:51;;;;;;;3.83;2.20;;;;;;;15.99;100.00;92214.22;5034753;28;20041;-77
2022/09/08 07:31:24;;;;;;;4.63;2.20;;;;;;;15.99;100.00;92219.50;5047369;28;20041;-75
2022/09/08 07:34:10;;;;;;;3.15;1.70;;;;;;;16.05;100.00;92217.41;5040071;28;20474;-76
2022/09/08 07:36:45;;;;;;;3.72;2.20;;;;;;;16.26;100.00;92223.41;5060127;28;20470;-78
2022/09/08 07:39:46;;;;;;;4.57;2.45;;;;;;;16.90;100.00;92218.66;5069085;28;20048;-76
2022/09/08 07:42:15;;;;;;;4.57;2.00;;;;;;;17.28;100.00;92218.28;5045106;28;20392;-76
2022/09/08 07:44:41;;;;;;;6.50;1.95;;;;;;;17.68;100.00;92226.22;5058313;28;20139;-76
2022/09/08 07:47:18;;;;;;;3.85;2.00;;;;;;;17.76;100.00;92226.41;5045958;28;20116;-76
2022/09/08 07:49:51;;;;;;;3.47;1.98;;;;;;;18.01;100.00;92221.81;5044127;28;20040;-76
2022/09/08 07:52:29;;;;;;;5.22;2.00;;;;;;;18.26;100.00;92228.56;5043725;28;20029;-77
2022/09/08 07:55:34;;;;;;;4.32;1.60;;;;;;;18.16;100.00;92233.56;5072934;28;20509;-76
2022/09/08 07:58:16;;;;;;;4.45;2.03;;;;;;;18.17;100.00;92229.78;4990469;28;20034;-77
2022/09/08 08:01:19;;;;;;;4.80;1.80;;;;;;;18.19;100.00;92227.56;4985480;28;20155;-76
2022/09/08 08:03:52;;;;;;;3.20;1.70;;;;;;;18.27;100.00;92227.44;5047918;28;20049;-76
2022/09/08 08:06:38;;;;;;;3.28;1.70;;;;;;;18.47;100.00;92217.72;5067888;28;20040;-76
2022/09/08 08:09:22;;;;;;;3.30;1.70;;;;;;;18.70;98.26;92217.13;5034805;28;20105;-76
2022/09/08 08:12:03;;;;;;;6.07;2.25;;;;;;;18.54;100.00;92221.66;5024230;28;20060;-76
2022/09/08 08:14:52;;;;;;;3.72;2.30;;;;;;;18.70;100.00;92214.47;5052723;28;20318;-75
2022/09/08 08:17:20;;;;;;;5.50;2.22;;;;;;;18.95;100.00;92209.75;4992696;28;20041;-76
2022/09/08 08:20:22;;;;;;;4.13;2.00;;;;;;;19.07;100.00;92217.63;5009513;28;20220;-76
2022/09/08 08:23:17;;;;;;;7.45;2.67;;;;;;;18.46;100.00;92220.69;5031213;28;20031;-76
2022/09/08 08:26:28;;;;;;;65.80;4.53;;;;;;;18.18;100.00;92220.75;5020467;28;20501;-76
2022/09/08 08:29:11;;;;;;;47.35;4.40;;;;;;;18.02;100.00;92216.19;5021411;28;20680;-76
2022/09/08 08:31:47;;;;;;;6.95;3.50;;;;;;;17.91;100.00;92217.78;5013893;28;20403;-76
2022/09/08 08:34:36;;;;;;;7.18;3.55;;;;;;;18.14;100.00;92219.88;5039107;28;20403;-76
2022/09/08 08:37:06;;;;;;;5.05;2.97;;;;;;;18.39;100.00;92223.94;5024901;28;20401;-76
2022/09/08 08:39:35;;;;;;;8.48;3.40;;;;;;;18.49;100.00;92231.41;5021486;28;20038;-75
2022/09/08 08:42:13;;;;;;;6.38;3.50;;;;;;;18.58;100.00;92225.16;5018413;28;20041;-75
2022/09/08 08:44:53;;;;;;;7.45;3.50;;;;;;;18.10;100.00;92231.16;5036313;28;20037;-75
2022/09/08 08:47:31;;;;;;;5.88;3.20;;;;;;;17.99;100.00;92230.13;5031980;28;20341;-75
2022/09/08 08:50:08;;;;;;;6.35;3.30;;;;;;;17.95;100.00;92231.91;5044537;28;20029;-75
2022/09/08 08:52:55;;;;;;;5.47;2.90;;;;;;;18.19;100.00;92235.53;5045694;28;20088;-75
2022/09/08 08:56:03;;;;;;;6.30;3.03;;;;;;;18.00;100.00;92236.94;5043260;28;20022;-75
2022/09/08 08:58:40;;;;;;;5.15;3.13;;;;;;;18.27;100.00;92237.25;5012321;28;20483;-74
2022/09/08 09:01:24;;;;;;;4.78;2.50;;;;;;;18.68;100.00;92237.91;5025090;28;20033;-75
2022/09/08 09:03:53;;;;;;;5.05;2.40;;;;;;;19.10;100.00;92229.44;5029892;28;20413;-75
2022/09/08 09:06:42;;;;;;;4.90;2.63;;;;;;;18.79;100.00;92228.34;5035338;28;20471;-75
2022/09/08 09:09:41;;;;;;;5.43;2.72;;;;;;;18.98;100.00;92229.53;5023596;28;20120;-76
2022/09/08 09:12:41;;;;;;;6.25;2.33;;;;;;;19.32;100.00;92230.69;5034166;28;20040;-76
2022/09/08 09:15:23;;;;;;;5.35;2.47;;;;;;;19.39;99.97;92224.75;5023255;28;20040;-76
2022/09/08 09:18:12;;;;;;;5.80;2.65;;;;;;;19.60;99.14;92219.88;5040756;28;20441;-76
2022/09/08 09:21:01;;;;;;;4.53;2.40;;;;;;;19.57;100.00;92223.25;5038379;28;20120;-76
2022/09/08 09:23:55;;;;;;;5.63;2.42;;;;;;;19.70;99.42;92230.00;5026207;28;20056;-76
2022/09/08 09:26:23;;;;;;;5.00;2.63;;;;;;;19.67;98.77;92229.88;5036551;28;20033;-76
2022/09/08 09:29:04;;;;;;;4.53;1.90;;;;;;;19.54;98.88;92230.03;5012866;28;20382;-76
2022/09/08 09:31:48;;;;;;;3.92;1.90;;;;;;;19.47;97.15;92234.41;5017729;28;20032;-76
2022/09/08 09:34:39;;;;;;;6.95;2.28;;;;;;;19.44;98.69;92224.47;5033438;28;20079;-77
2022/09/08 09:37:39;;;;;;;4.68;2.15;;;;;;;19.62;99.28;92225.63;5033025;28;20402;-76
2022/09/08 09:40:33;;;;;;;5.05;2.10;;;;;;;19.48;93.76;92228.75;4984070;28;20044;-76
2022/09/08 09:43:07;;;;;;;3.53;1.73;;;;;;;19.53;97.52;92228.47;5045007;28;20565;-76
2022/09/08 09:46:01;;;;;;;4.10;1.90;;;;;;;19.69;92.92;92225.03;5021154;28;20133;-75
2022/09/08 09:49:04;;;;;;;6.30;1.83;;;;;;;19.81;90.09;92226.78;5013800;28;20025;-76
2022/09/08 09:51:48;;;;;;;3.55;1.77;;;;;;;20.02;89.77;92224.53;5012390;28;20045;-76
2022/09/08 09:54:32;;;;;;;3.53;1.70;;;;;;;20.05;86.18;92226.47;5013011;28;20056;-75
2022/09/08 09:57:20;;;;;;;2.83;1.50;;;;;;;20.42;85.57;92228.66;5015977;28;20045;-76
2022/09/08 10:00:08;;;;;;;2.47;1.45;;;;;;;20.33;85.27;92233.44;5029460;28;20045;-76
2022/09/08 10:03:09;;;;;;;4.90;1.75;;;;;;;20.16;89.76;92237.31;5030503;28;20061;-76
2022/09/08 10:06:01;;;;;;;4.63;1.80;;;;;;;20.24;87.55;92238.22;5015172;28;20037;-76
2022/09/08 10:08:40;;;;;;;5.35;2.03;;;;;;;20.28;84.96;92231.84;5040232;28;20390;-77
2022/09/08 10:11:40;;;;;;;5.18;2.00;;;;;;;20.52;86.20;92237.97;5024407;28;20040;-76
2022/09/08 10:14:05;;;;;;;3.75;2.03;;;;;;;20.68;84.72;92238.63;5041890;28;20233;-76
2022/09/08 10:16:34;;;;;;;2.10;1.30;;;;;;;20.53;83.97;92237.59;5050116;28;20036;-76
2022/09/08 10:19:31;;;;;;;3.75;1.50;;;;;;;20.35;83.78;92241.81;5002163;28;20029;-76
2022/09/08 10:22:26;;;;;;;5.07;1.80;;;;;;;20.42;85.59;92244.59;5057229;28;20079;-76
2022/09/08 10:24:54;;;;;;;5.15;1.80;;;;;;;20.74;84.88;92245.22;5038259;28;20042;-76
2022/09/08 10:27:57;;;;;;;3.88;1.70;;;;;;;20.59;85.26;92243.44;5016826;28;20044;-76
2022/09/08 10:30:56;;;;;;;6.22;1.70;;;;;;;20.75;82.57;92238.75;5049215;28;20069;-77
2022/09/08 10:33:59;;;;;;;3.70;1.70;;;;;;;20.86;84.06;92252.22;5032936;28;20059;-77
2022/09/08 10:37:09;;;;;;;3.40;1.73;;;;;;;20.79;82.79;92252.13;5052213;28;20024;-77
2022/09/08 10:39:53;;;;;;;3.25;1.70;;;;;;;20.98;82.41;92251.28;5035498;28;20040;-77
2022/09/08 10:42:48;;;;;;;3.83;1.60;;;;;;;21.19;82.05;92248.94;5046820;28;20033;-77
2022/09/08 10:45:23;;;;;;;3.85;1.42;;;;;;;20.98;79.16;92251.28;5069136;28;20068;-77
2022/09/08 10:48:28;;;;;;;3.92;1.48;;;;;;;20.90;80.80;92250.41;5037981;28;20033;-77
2022/09/08 10:51:06;;;;;;;2.78;1.52;;;;;;;20.93;82.68;92252.34;5050300;28;20483;-76
2022/09/08 10:53:51;;;;;;;3.65;1.55;;;;;;;21.21;77.09;92251.25;5045750;28;20037;-77
2022/09/08 10:56:26;;;;;;;4.03;1.77;;;;;;;21.38;78.25;92242.75;5046453;28;20029;-76
2022/09/08 10:59:07;;;;;;;2.90;1.60;;;;;;;21.49;77.53;92245.59;5045880;28;20029;-76
2022/09/08 11:01:54;;;;;;;4.65;2.10;;;;;;;21.51;76.98;92248.66;5023036;28;20040;-77
2022/09/08 11:04:34;;;;;;;4.55;1.88;;;;;;;21.50;75.68;92241.78;5036469;28;20045;-77
2022/09/08 11:07:15;;;;;;;4.80;1.65;;;;;;;21.48;75.83;92238.75;5034568;28;20483;-76
2022/09/08 11:10:11;;;;;;;5.53;2.10;;;;;;;21.16;79.54;92238.25;5019508;28;20488;-77
2022/09/08 11:13:12;;;;;;;5.53;1.65;;;;;;;21.29;76.57;92234.25;5053254;28;20048;-77
2022/09/08 11:16:15;;;;;;;6.05;1.95;;;;;;;21.29;75.56;92231.59;5074023;28;20041;-79
2022/09/08 11:18:52;;;;;;;7.50;2.10;;;;;;;21.62;74.07;92235.50;5059876;28;20032;-76
2022/09/08 11:21:27;;;;;;;3.95;2.10;;;;;;;21.44;70.46;92239.81;5051849;28;20036;-76
2022/09/08 11:24:04;;;;;;;5.55;2.22;;;;;;;21.57;73.82;92238.47;5045186;28;20453;-76
2022/09/08 11:26:59;;;;;;;4.50;2.13;;;;;;;21.17;72.27;92235.22;5033145;28;20521;-76
2022/09/08 11:29:34;;;;;;;6.43;2.30;;;;;;;21.51;74.45;92246.00;5051670;28;20095;-76
2022/09/08 11:32:15;;;;;;;4.38;1.85;;;;;;;21.68;72.38;92244.69;5049297;28;20034;-76
2022/09/08 11:34:55;;;;;;;5.35;2.22;;;;;;;21.59;70.00;92247.66;5034856;28;20044;-77
2022/09/08 11:37:27;;;;;;;6.25;2.67;;;;;;;21.86;72.53;92249.50;5040327;28;20043;-77
2022/09/08 11:40:20;;;;;;;6.88;2.20;;;;;;;21.87;78.42;92248.38;5050490;28;20032;-77
2022/09/08 11:43:14;;;;;;;6.68;2.50;;;;;;;21.93;74.93;92246.91;5027288;28;20029;-76
2022/09/08 11:45:51;;;;;;;4.70;2.47;;;;;;;21.98;72.53;92241.28;5044354;28;20056;-76
2022/09/08 11:48:23;;;;;;;7.70;2.42;;;;;;;21.97;72.21;92239.72;5049236;28;20506;-76
2022/09/08 11:51:07;;;;;;;6.55;2.80;;;;;;;22.09;70.64;92244.84;5032068;28;20122;-76
2022/09/08 11:53:52;;;;;;;9.07;2.55;;;;;;;22.42;72.90;92245.97;5046358;28;20036;-76
2022/09/08 11:56:30;;;;;;;4.15;2.40;;;;;;;22.32;70.83;92242.06;5051179;28;20037;-76
2022/09/08 11:59:23;;;;;;;7.75;2.40;;;;;;;22.48;72.75;92249.84;5042614;28;20056;-76
2022/09/08 12:02:17;;;;;;;7.38;2.60;;;;;;;22.09;69.27;92244.84;5044951;28;20029;-76
2022/09/08 12:05:11;;;;;;;4.65;2.40;;;;;;;22.34;70.63;92250.47;4998943;28;20246;-76
2022/09/08 12:07:57;;;;;;;4.75;2.15;;;;;;;22.13;71.31;92242.19;5026549;28;20037;-77